This is the latest recevied weather packets stored in our database for station/object OK1ALX-6. If no packets are shown the sender has not sent any weather packets the latest 10 day(s).
| Time | Temp. | Humidity | Pressure | Rain* | Wind** | Luminosity | Snow |
|---|---|---|---|---|---|---|---|
| 1777618211 | 11.11° C | 55% | 1035.1 hPa | 0 mm | - | 311 W/m² | - |
| 1777617603 | 11.67° C | 54% | 1035.2 hPa | 0 mm | - | 270 W/m² | - |
| 1777617003 | 11.11° C | 57% | 1035.4 hPa | 0 mm | - | 235 W/m² | - |
| 1777616403 | 10.56° C | 59% | 1035.4 hPa | 0 mm | - | 211 W/m² | - |
| 1777615803 | 10.56° C | 59% | 1035.2 hPa | 0 mm | - | 183 W/m² | - |
| 1777615204 | 10° C | 60% | 1035.3 hPa | 0 mm | - | 161 W/m² | - |
| 1777614603 | 8.33° C | 66% | 1035.6 hPa | 0 mm | - | 141 W/m² | - |
| 1777614004 | 8.33° C | 68% | 1035.6 hPa | 0 mm | - | 129 W/m² | - |
| 1777613403 | 8.89° C | 63% | 1035.6 hPa | 0 mm | - | 80 W/m² | - |
| 1777612804 | 8.33° C | 69% | 1035.6 hPa | 0 mm | - | 67 W/m² | - |
| 1777612203 | 7.78° C | 73% | 1035.6 hPa | 0 mm | - | 58 W/m² | - |
| 1777611603 | 8.33° C | 67% | 1035.5 hPa | 0 mm | - | 55 W/m² | - |
| 1777611011 | 7.78° C | 66% | 1036 hPa | 0 mm | - | 67 W/m² | - |
| 1777610403 | 6.11° C | 74% | 1036.2 hPa | 0 mm | - | 50 W/m² | - |
| 1777609804 | 5.56° C | 77% | 1036.3 hPa | 0 mm | - | 36 W/m² | - |
| 1777609203 | 5° C | 78% | 1036.3 hPa | 0 mm | - | 30 W/m² | - |
| 1777608603 | 4.44° C | 80% | 1036.2 hPa | 0 mm | - | 18 W/m² | - |
| 1777608003 | 3.89° C | 82% | 1036 hPa | 0 mm | - | 12 W/m² | - |
| 1777607403 | 3.89° C | 82% | 1036 hPa | 0 mm | - | 6 W/m² | - |
| 1777606803 | 4.44° C | 82% | 1036 hPa | 0 mm | - | 2 W/m² | - |
| 1777606204 | 4.44° C | 81% | 1035.9 hPa | 0 mm | - | 0 W/m² | - |
| 1777605603 | 5° C | 82% | 1036.1 hPa | 0 mm | - | 0 W/m² | - |
| 1777605003 | 5.56° C | 82% | 1035.8 hPa | 0 mm | - | 0 W/m² | - |
| 1777604403 | 5.56° C | 81% | 1035.6 hPa | 0 mm | - | 0 W/m² | - |
| 1777603803 | 5.56° C | 81% | 1035.4 hPa | 0 mm | - | 0 W/m² | - |
* Rain latest hour (hover to see other rain measurements)
** Current wind speed in m/s (hover to see current wind gust speed)